sensor_id;sensor_type;location;lat;lon;timestamp;P1;durP1;ratioP1;P2;durP2;ratioP2
5339;SDS011;2692;48.848;8.924;2023-03-04T00:01:18;5.60;;;4.70;;
5339;SDS011;2692;48.848;8.924;2023-03-04T00:03:44;13.32;;;7.05;;
5339;SDS011;2692;48.848;8.924;2023-03-04T00:06:09;15.20;;;8.07;;
5339;SDS011;2692;48.848;8.924;2023-03-04T00:08:34;8.13;;;6.37;;
5339;SDS011;2692;48.848;8.924;2023-03-04T00:10:59;10.40;;;6.40;;
5339;SDS011;2692;48.848;8.924;2023-03-04T00:13:25;10.87;;;7.53;;
5339;SDS011;2692;48.848;8.924;2023-03-04T00:15:50;8.53;;;5.63;;
5339;SDS011;2692;48.848;8.924;2023-03-04T00:18:16;6.57;;;5.30;;
5339;SDS011;2692;48.848;8.924;2023-03-04T00:20:41;10.23;;;7.10;;
5339;SDS011;2692;48.848;8.924;2023-03-04T00:23:06;8.30;;;5.20;;
5339;SDS011;2692;48.848;8.924;2023-03-04T00:25:31;8.00;;;5.50;;
5339;SDS011;2692;48.848;8.924;2023-03-04T00:27:57;31.27;;;5.20;;
5339;SDS011;2692;48.848;8.924;2023-03-04T00:30:22;7.90;;;5.00;;
5339;SDS011;2692;48.848;8.924;2023-03-04T00:32:48;4.23;;;3.83;;
5339;SDS011;2692;48.848;8.924;2023-03-04T00:35:13;7.13;;;5.30;;
5339;SDS011;2692;48.848;8.924;2023-03-04T00:37:38;5.47;;;4.50;;
5339;SDS011;2692;48.848;8.924;2023-03-04T00:40:04;6.35;;;5.38;;
5339;SDS011;2692;48.848;8.924;2023-03-04T00:42:29;18.40;;;7.03;;
5339;SDS011;2692;48.848;8.924;2023-03-04T00:44:54;8.40;;;5.10;;
5339;SDS011;2692;48.848;8.924;2023-03-04T00:47:19;5.00;;;4.43;;
5339;SDS011;2692;48.848;8.924;2023-03-04T00:49:44;8.63;;;6.30;;
5339;SDS011;2692;48.848;8.924;2023-03-04T00:52:09;4.88;;;4.18;;
5339;SDS011;2692;48.848;8.924;2023-03-04T00:54:35;12.57;;;6.57;;
5339;SDS011;2692;48.848;8.924;2023-03-04T00:57:00;5.97;;;4.63;;
5339;SDS011;2692;48.848;8.924;2023-03-04T00:59:25;7.13;;;4.70;;
5339;SDS011;2692;48.848;8.924;2023-03-04T01:01:50;11.57;;;6.33;;
5339;SDS011;2692;48.848;8.924;2023-03-04T01:04:15;8.00;;;5.30;;
5339;SDS011;2692;48.848;8.924;2023-03-04T01:06:40;8.70;;;5.00;;
5339;SDS011;2692;48.848;8.924;2023-03-04T01:09:06;10.37;;;6.40;;
5339;SDS011;2692;48.848;8.924;2023-03-04T01:11:32;5.83;;;4.70;;
5339;SDS011;2692;48.848;8.924;2023-03-04T01:13:57;7.53;;;5.32;;
5339;SDS011;2692;48.848;8.924;2023-03-04T01:16:22;9.83;;;3.87;;
5339;SDS011;2692;48.848;8.924;2023-03-04T01:18:47;10.67;;;4.83;;
5339;SDS011;2692;48.848;8.924;2023-03-04T01:21:13;4.00;;;3.57;;
5339;SDS011;2692;48.848;8.924;2023-03-04T01:23:38;5.17;;;3.97;;
5339;SDS011;2692;48.848;8.924;2023-03-04T01:26:03;6.90;;;4.90;;
5339;SDS011;2692;48.848;8.924;2023-03-04T01:28:28;14.00;;;6.43;;
5339;SDS011;2692;48.848;8.924;2023-03-04T01:30:53;6.80;;;4.97;;
5339;SDS011;2692;48.848;8.924;2023-03-04T01:33:19;5.70;;;4.20;;
5339;SDS011;2692;48.848;8.924;2023-03-04T01:35:44;7.27;;;5.13;;
5339;SDS011;2692;48.848;8.924;2023-03-04T01:38:09;7.77;;;5.43;;
5339;SDS011;2692;48.848;8.924;2023-03-04T01:40:34;5.10;;;4.20;;
5339;SDS011;2692;48.848;8.924;2023-03-04T01:43:00;5.50;;;4.90;;
5339;SDS011;2692;48.848;8.924;2023-03-04T01:45:25;7.20;;;5.77;;
5339;SDS011;2692;48.848;8.924;2023-03-04T01:47:51;5.00;;;4.30;;
5339;SDS011;2692;48.848;8.924;2023-03-04T01:50:24;5.27;;;4.63;;
5339;SDS011;2692;48.848;8.924;2023-03-04T01:52:51;5.57;;;4.60;;
5339;SDS011;2692;48.848;8.924;2023-03-04T01:55:19;6.70;;;5.03;;
5339;SDS011;2692;48.848;8.924;2023-03-04T01:57:46;7.40;;;5.20;;
5339;SDS011;2692;48.848;8.924;2023-03-04T02:02:46;9.03;;;6.00;;
5339;SDS011;2692;48.848;8.924;2023-03-04T02:05:12;6.50;;;5.00;;
5339;SDS011;2692;48.848;8.924;2023-03-04T02:07:37;7.30;;;4.93;;
5339;SDS011;2692;48.848;8.924;2023-03-04T02:10:03;11.37;;;4.67;;
5339;SDS011;2692;48.848;8.924;2023-03-04T02:12:28;7.73;;;5.47;;
5339;SDS011;2692;48.848;8.924;2023-03-04T02:14:53;5.13;;;4.63;;
5339;SDS011;2692;48.848;8.924;2023-03-04T02:17:23;6.07;;;4.57;;
5339;SDS011;2692;48.848;8.924;2023-03-04T02:19:50;10.83;;;5.50;;
5339;SDS011;2692;48.848;8.924;2023-03-04T02:22:16;6.10;;;4.80;;
5339;SDS011;2692;48.848;8.924;2023-03-04T02:24:46;8.13;;;5.13;;
5339;SDS011;2692;48.848;8.924;2023-03-04T02:27:12;10.53;;;5.30;;
5339;SDS011;2692;48.848;8.924;2023-03-04T02:29:38;9.07;;;5.53;;
5339;SDS011;2692;48.848;8.924;2023-03-04T02:32:03;4.40;;;4.00;;
5339;SDS011;2692;48.848;8.924;2023-03-04T02:34:30;7.40;;;4.87;;
5339;SDS011;2692;48.848;8.924;2023-03-04T02:36:56;5.13;;;4.40;;
5339;SDS011;2692;48.848;8.924;2023-03-04T02:39:27;8.20;;;5.13;;
5339;SDS011;2692;48.848;8.924;2023-03-04T02:41:54;5.03;;;4.00;;
5339;SDS011;2692;48.848;8.924;2023-03-04T02:44:21;5.00;;;3.73;;
5339;SDS011;2692;48.848;8.924;2023-03-04T02:46:47;4.60;;;4.13;;
5339;SDS011;2692;48.848;8.924;2023-03-04T02:49:13;5.83;;;5.23;;
5339;SDS011;2692;48.848;8.924;2023-03-04T02:51:38;13.13;;;6.60;;
5339;SDS011;2692;48.848;8.924;2023-03-04T02:54:03;5.70;;;5.00;;
5339;SDS011;2692;48.848;8.924;2023-03-04T02:56:28;4.13;;;3.40;;
5339;SDS011;2692;48.848;8.924;2023-03-04T02:58:54;14.00;;;5.53;;
5339;SDS011;2692;48.848;8.924;2023-03-04T03:01:19;5.05;;;3.65;;
5339;SDS011;2692;48.848;8.924;2023-03-04T03:03:44;7.50;;;5.53;;
5339;SDS011;2692;48.848;8.924;2023-03-04T03:06:09;8.33;;;5.37;;
5339;SDS011;2692;48.848;8.924;2023-03-04T03:08:34;7.30;;;4.50;;
5339;SDS011;2692;48.848;8.924;2023-03-04T03:10:59;5.97;;;4.60;;
5339;SDS011;2692;48.848;8.924;2023-03-04T03:13:25;6.40;;;4.67;;
5339;SDS011;2692;48.848;8.924;2023-03-04T03:15:50;7.97;;;5.03;;
5339;SDS011;2692;48.848;8.924;2023-03-04T03:18:15;7.40;;;5.33;;
5339;SDS011;2692;48.848;8.924;2023-03-04T03:20:40;6.40;;;5.00;;
5339;SDS011;2692;48.848;8.924;2023-03-04T03:23:06;3.47;;;2.80;;
5339;SDS011;2692;48.848;8.924;2023-03-04T03:25:31;7.80;;;5.30;;
5339;SDS011;2692;48.848;8.924;2023-03-04T03:27:56;5.37;;;3.83;;
5339;SDS011;2692;48.848;8.924;2023-03-04T03:30:21;14.93;;;6.67;;
5339;SDS011;2692;48.848;8.924;2023-03-04T03:32:47;8.90;;;5.43;;
5339;SDS011;2692;48.848;8.924;2023-03-04T03:35:12;5.60;;;4.17;;
5339;SDS011;2692;48.848;8.924;2023-03-04T03:37:37;4.50;;;4.07;;
5339;SDS011;2692;48.848;8.924;2023-03-04T03:40:02;6.10;;;4.37;;
5339;SDS011;2692;48.848;8.924;2023-03-04T03:42:28;10.30;;;6.33;;
5339;SDS011;2692;48.848;8.924;2023-03-04T03:44:53;4.43;;;3.83;;
5339;SDS011;2692;48.848;8.924;2023-03-04T03:47:19;14.20;;;6.60;;
5339;SDS011;2692;48.848;8.924;2023-03-04T03:49:45;10.53;;;5.90;;
5339;SDS011;2692;48.848;8.924;2023-03-04T03:52:10;5.33;;;4.60;;
5339;SDS011;2692;48.848;8.924;2023-03-04T03:54:35;6.23;;;5.47;;
5339;SDS011;2692;48.848;8.924;2023-03-04T03:57:00;5.93;;;4.90;;
5339;SDS011;2692;48.848;8.924;2023-03-04T03:59:25;6.37;;;5.60;;
5339;SDS011;2692;48.848;8.924;2023-03-04T04:01:50;7.93;;;5.47;;
5339;SDS011;2692;48.848;8.924;2023-03-04T04:04:16;8.17;;;5.07;;
5339;SDS011;2692;48.848;8.924;2023-03-04T04:06:41;5.40;;;3.80;;
5339;SDS011;2692;48.848;8.924;2023-03-04T04:09:06;5.97;;;4.80;;
5339;SDS011;2692;48.848;8.924;2023-03-04T04:11:31;9.10;;;4.90;;
5339;SDS011;2692;48.848;8.924;2023-03-04T04:13:56;8.33;;;5.30;;
5339;SDS011;2692;48.848;8.924;2023-03-04T04:16:23;6.13;;;5.50;;
5339;SDS011;2692;48.848;8.924;2023-03-04T04:18:48;10.23;;;6.07;;
5339;SDS011;2692;48.848;8.924;2023-03-04T04:21:13;10.07;;;6.73;;
5339;SDS011;2692;48.848;8.924;2023-03-04T04:23:38;7.90;;;5.67;;
5339;SDS011;2692;48.848;8.924;2023-03-04T04:26:03;9.85;;;6.97;;
5339;SDS011;2692;48.848;8.924;2023-03-04T04:28:29;7.00;;;5.20;;
5339;SDS011;2692;48.848;8.924;2023-03-04T04:30:54;5.20;;;4.40;;
5339;SDS011;2692;48.848;8.924;2023-03-04T04:33:19;10.00;;;5.90;;
5339;SDS011;2692;48.848;8.924;2023-03-04T04:35:44;5.63;;;4.50;;
5339;SDS011;2692;48.848;8.924;2023-03-04T04:38:09;5.40;;;4.63;;
5339;SDS011;2692;48.848;8.924;2023-03-04T04:40:34;7.60;;;5.47;;
5339;SDS011;2692;48.848;8.924;2023-03-04T04:43:00;10.70;;;7.10;;
5339;SDS011;2692;48.848;8.924;2023-03-04T04:45:25;7.43;;;5.70;;
5339;SDS011;2692;48.848;8.924;2023-03-04T04:47:51;7.53;;;5.40;;
5339;SDS011;2692;48.848;8.924;2023-03-04T04:50:16;5.67;;;5.10;;
5339;SDS011;2692;48.848;8.924;2023-03-04T04:52:41;11.53;;;7.57;;
5339;SDS011;2692;48.848;8.924;2023-03-04T04:55:07;11.03;;;6.07;;
5339;SDS011;2692;48.848;8.924;2023-03-04T04:57:33;6.70;;;4.63;;
5339;SDS011;2692;48.848;8.924;2023-03-04T04:59:58;7.40;;;5.63;;
5339;SDS011;2692;48.848;8.924;2023-03-04T05:02:23;10.93;;;6.10;;
5339;SDS011;2692;48.848;8.924;2023-03-04T05:04:48;22.50;;;6.70;;
5339;SDS011;2692;48.848;8.924;2023-03-04T05:07:14;12.07;;;7.67;;
5339;SDS011;2692;48.848;8.924;2023-03-04T05:09:39;12.57;;;6.72;;
5339;SDS011;2692;48.848;8.924;2023-03-04T05:12:04;10.17;;;6.93;;
5339;SDS011;2692;48.848;8.924;2023-03-04T05:14:29;7.37;;;5.50;;
5339;SDS011;2692;48.848;8.924;2023-03-04T05:16:54;20.20;;;5.93;;
5339;SDS011;2692;48.848;8.924;2023-03-04T05:19:19;5.80;;;5.20;;
5339;SDS011;2692;48.848;8.924;2023-03-04T05:21:45;11.47;;;8.20;;
5339;SDS011;2692;48.848;8.924;2023-03-04T05:24:10;9.80;;;5.50;;
5339;SDS011;2692;48.848;8.924;2023-03-04T05:26:35;6.80;;;5.17;;
5339;SDS011;2692;48.848;8.924;2023-03-04T05:29:00;18.37;;;9.03;;
5339;SDS011;2692;48.848;8.924;2023-03-04T05:31:25;8.50;;;6.70;;
5339;SDS011;2692;48.848;8.924;2023-03-04T05:33:51;10.47;;;7.67;;
5339;SDS011;2692;48.848;8.924;2023-03-04T05:36:16;10.60;;;6.88;;
5339;SDS011;2692;48.848;8.924;2023-03-04T05:38:41;9.97;;;7.10;;
5339;SDS011;2692;48.848;8.924;2023-03-04T05:41:06;8.80;;;6.30;;
5339;SDS011;2692;48.848;8.924;2023-03-04T05:43:32;8.67;;;5.33;;
5339;SDS011;2692;48.848;8.924;2023-03-04T05:45:59;9.53;;;6.37;;
5339;SDS011;2692;48.848;8.924;2023-03-04T05:48:24;11.93;;;7.30;;
5339;SDS011;2692;48.848;8.924;2023-03-04T05:50:56;6.53;;;5.70;;
5339;SDS011;2692;48.848;8.924;2023-03-04T05:53:21;11.13;;;7.10;;
5339;SDS011;2692;48.848;8.924;2023-03-04T05:55:47;7.10;;;5.83;;
5339;SDS011;2692;48.848;8.924;2023-03-04T05:58:12;10.77;;;7.13;;
5339;SDS011;2692;48.848;8.924;2023-03-04T06:00:38;12.87;;;6.80;;
5339;SDS011;2692;48.848;8.924;2023-03-04T06:03:03;6.07;;;5.18;;
5339;SDS011;2692;48.848;8.924;2023-03-04T06:05:28;11.40;;;6.90;;
5339;SDS011;2692;48.848;8.924;2023-03-04T06:07:53;12.20;;;7.20;;
5339;SDS011;2692;48.848;8.924;2023-03-04T06:10:18;9.13;;;6.40;;
5339;SDS011;2692;48.848;8.924;2023-03-04T06:12:43;10.10;;;6.60;;
5339;SDS011;2692;48.848;8.924;2023-03-04T06:15:09;13.03;;;6.43;;
5339;SDS011;2692;48.848;8.924;2023-03-04T06:17:34;8.03;;;6.33;;
5339;SDS011;2692;48.848;8.924;2023-03-04T06:20:00;9.03;;;5.30;;
5339;SDS011;2692;48.848;8.924;2023-03-04T06:22:25;9.50;;;7.23;;
5339;SDS011;2692;48.848;8.924;2023-03-04T06:24:50;9.80;;;6.73;;
5339;SDS011;2692;48.848;8.924;2023-03-04T06:27:15;7.47;;;5.70;;
5339;SDS011;2692;48.848;8.924;2023-03-04T06:29:40;6.43;;;5.33;;
5339;SDS011;2692;48.848;8.924;2023-03-04T06:32:06;11.17;;;7.80;;
5339;SDS011;2692;48.848;8.924;2023-03-04T06:34:31;7.97;;;6.07;;
5339;SDS011;2692;48.848;8.924;2023-03-04T06:36:57;10.50;;;7.30;;
5339;SDS011;2692;48.848;8.924;2023-03-04T06:39:23;11.77;;;7.40;;
5339;SDS011;2692;48.848;8.924;2023-03-04T06:41:48;7.30;;;5.60;;
5339;SDS011;2692;48.848;8.924;2023-03-04T06:44:13;6.80;;;5.10;;
5339;SDS011;2692;48.848;8.924;2023-03-04T06:46:38;15.23;;;6.33;;
5339;SDS011;2692;48.848;8.924;2023-03-04T06:49:03;9.30;;;6.27;;
5339;SDS011;2692;48.848;8.924;2023-03-04T06:51:28;11.97;;;6.73;;
5339;SDS011;2692;48.848;8.924;2023-03-04T06:53:54;9.13;;;6.53;;
5339;SDS011;2692;48.848;8.924;2023-03-04T06:56:19;9.37;;;7.30;;
5339;SDS011;2692;48.848;8.924;2023-03-04T06:58:44;6.80;;;5.57;;
5339;SDS011;2692;48.848;8.924;2023-03-04T07:01:10;16.60;;;8.33;;
5339;SDS011;2692;48.848;8.924;2023-03-04T07:03:36;10.27;;;7.10;;
5339;SDS011;2692;48.848;8.924;2023-03-04T07:06:01;9.27;;;5.95;;
5339;SDS011;2692;48.848;8.924;2023-03-04T07:08:27;8.73;;;6.53;;
5339;SDS011;2692;48.848;8.924;2023-03-04T07:10:52;9.60;;;6.77;;
5339;SDS011;2692;48.848;8.924;2023-03-04T07:13:17;27.45;;;9.85;;
5339;SDS011;2692;48.848;8.924;2023-03-04T07:15:42;9.50;;;7.07;;
5339;SDS011;2692;48.848;8.924;2023-03-04T07:18:07;31.87;;;8.60;;
5339;SDS011;2692;48.848;8.924;2023-03-04T07:20:33;8.80;;;7.50;;
5339;SDS011;2692;48.848;8.924;2023-03-04T07:22:58;7.30;;;6.20;;
5339;SDS011;2692;48.848;8.924;2023-03-04T07:25:23;10.27;;;7.50;;
5339;SDS011;2692;48.848;8.924;2023-03-04T07:27:48;11.30;;;8.27;;
5339;SDS011;2692;48.848;8.924;2023-03-04T07:30:13;12.45;;;6.70;;
5339;SDS011;2692;48.848;8.924;2023-03-04T07:32:38;12.23;;;8.30;;
5339;SDS011;2692;48.848;8.924;2023-03-04T07:35:04;7.80;;;5.97;;
5339;SDS011;2692;48.848;8.924;2023-03-04T07:37:29;8.53;;;6.30;;
5339;SDS011;2692;48.848;8.924;2023-03-04T07:39:54;7.88;;;5.90;;
5339;SDS011;2692;48.848;8.924;2023-03-04T07:42:19;6.70;;;5.97;;
5339;SDS011;2692;48.848;8.924;2023-03-04T07:44:44;19.13;;;7.80;;
5339;SDS011;2692;48.848;8.924;2023-03-04T07:47:10;7.13;;;5.43;;
5339;SDS011;2692;48.848;8.924;2023-03-04T07:49:35;8.00;;;5.63;;
5339;SDS011;2692;48.848;8.924;2023-03-04T07:52:03;10.90;;;6.37;;
5339;SDS011;2692;48.848;8.924;2023-03-04T07:54:29;14.30;;;6.83;;
5339;SDS011;2692;48.848;8.924;2023-03-04T07:56:54;7.00;;;5.00;;
5339;SDS011;2692;48.848;8.924;2023-03-04T07:59:19;7.68;;;5.70;;
5339;SDS011;2692;48.848;8.924;2023-03-04T08:01:44;5.70;;;4.97;;
5339;SDS011;2692;48.848;8.924;2023-03-04T08:04:10;12.20;;;6.70;;
5339;SDS011;2692;48.848;8.924;2023-03-04T08:06:35;7.37;;;5.93;;
5339;SDS011;2692;48.848;8.924;2023-03-04T08:09:01;12.50;;;7.40;;
5339;SDS011;2692;48.848;8.924;2023-03-04T08:11:27;7.53;;;5.53;;
5339;SDS011;2692;48.848;8.924;2023-03-04T08:13:53;8.63;;;6.03;;
5339;SDS011;2692;48.848;8.924;2023-03-04T08:16:19;10.00;;;6.43;;
5339;SDS011;2692;48.848;8.924;2023-03-04T08:18:45;7.03;;;5.40;;
5339;SDS011;2692;48.848;8.924;2023-03-04T08:21:12;6.87;;;5.13;;
5339;SDS011;2692;48.848;8.924;2023-03-04T08:23:37;7.37;;;6.63;;
5339;SDS011;2692;48.848;8.924;2023-03-04T08:26:07;11.90;;;6.93;;
5339;SDS011;2692;48.848;8.924;2023-03-04T08:28:32;9.43;;;6.73;;
5339;SDS011;2692;48.848;8.924;2023-03-04T08:30:58;8.00;;;5.83;;
5339;SDS011;2692;48.848;8.924;2023-03-04T08:33:23;11.43;;;6.90;;
5339;SDS011;2692;48.848;8.924;2023-03-04T08:35:48;8.00;;;5.97;;
5339;SDS011;2692;48.848;8.924;2023-03-04T08:38:13;8.70;;;5.72;;
5339;SDS011;2692;48.848;8.924;2023-03-04T08:40:38;11.40;;;6.47;;
5339;SDS011;2692;48.848;8.924;2023-03-04T08:43:03;9.80;;;6.80;;
5339;SDS011;2692;48.848;8.924;2023-03-04T08:45:28;14.07;;;7.07;;
5339;SDS011;2692;48.848;8.924;2023-03-04T08:47:54;10.43;;;6.40;;
5339;SDS011;2692;48.848;8.924;2023-03-04T08:50:19;6.67;;;5.53;;
5339;SDS011;2692;48.848;8.924;2023-03-04T08:52:45;8.53;;;5.97;;
5339;SDS011;2692;48.848;8.924;2023-03-04T08:55:10;10.20;;;5.80;;
5339;SDS011;2692;48.848;8.924;2023-03-04T08:57:35;6.97;;;5.80;;
5339;SDS011;2692;48.848;8.924;2023-03-04T09:00:01;7.43;;;6.10;;
5339;SDS011;2692;48.848;8.924;2023-03-04T09:02:26;10.40;;;6.70;;
5339;SDS011;2692;48.848;8.924;2023-03-04T09:04:51;13.10;;;6.53;;
5339;SDS011;2692;48.848;8.924;2023-03-04T09:07:16;9.32;;;6.78;;
5339;SDS011;2692;48.848;8.924;2023-03-04T09:09:41;22.30;;;8.30;;
5339;SDS011;2692;48.848;8.924;2023-03-04T09:12:06;8.90;;;6.63;;
5339;SDS011;2692;48.848;8.924;2023-03-04T09:14:32;7.33;;;6.37;;
5339;SDS011;2692;48.848;8.924;2023-03-04T09:16:59;10.00;;;6.70;;
5339;SDS011;2692;48.848;8.924;2023-03-04T09:19:24;8.50;;;6.63;;
5339;SDS011;2692;48.848;8.924;2023-03-04T09:21:51;24.40;;;8.50;;
5339;SDS011;2692;48.848;8.924;2023-03-04T09:24:16;10.85;;;7.95;;
5339;SDS011;2692;48.848;8.924;2023-03-04T09:26:42;10.40;;;7.30;;
5339;SDS011;2692;48.848;8.924;2023-03-04T09:29:07;13.80;;;7.57;;
5339;SDS011;2692;48.848;8.924;2023-03-04T09:31:32;11.63;;;5.93;;
5339;SDS011;2692;48.848;8.924;2023-03-04T09:33:58;12.93;;;8.73;;
5339;SDS011;2692;48.848;8.924;2023-03-04T09:36:23;7.30;;;6.60;;
5339;SDS011;2692;48.848;8.924;2023-03-04T09:38:48;11.40;;;8.53;;
5339;SDS011;2692;48.848;8.924;2023-03-04T09:43:39;9.00;;;7.03;;
5339;SDS011;2692;48.848;8.924;2023-03-04T09:46:06;9.23;;;6.37;;
5339;SDS011;2692;48.848;8.924;2023-03-04T09:48:37;7.27;;;6.00;;
5339;SDS011;2692;48.848;8.924;2023-03-04T09:51:22;17.40;;;9.53;;
5339;SDS011;2692;48.848;8.924;2023-03-04T09:56:19;12.80;;;8.93;;
5339;SDS011;2692;48.848;8.924;2023-03-04T09:58:49;12.63;;;9.10;;
5339;SDS011;2692;48.848;8.924;2023-03-04T10:04:02;12.97;;;7.50;;
5339;SDS011;2692;48.848;8.924;2023-03-04T10:06:27;13.33;;;9.37;;
5339;SDS011;2692;48.848;8.924;2023-03-04T10:09:00;14.77;;;10.43;;
5339;SDS011;2692;48.848;8.924;2023-03-04T10:11:27;18.53;;;9.90;;
5339;SDS011;2692;48.848;8.924;2023-03-04T10:16:23;17.23;;;11.37;;
5339;SDS011;2692;48.848;8.924;2023-03-04T10:19:14;34.33;;;12.20;;
5339;SDS011;2692;48.848;8.924;2023-03-04T10:21:47;14.93;;;10.20;;
5339;SDS011;2692;48.848;8.924;2023-03-04T10:24:14;11.83;;;7.73;;
5339;SDS011;2692;48.848;8.924;2023-03-04T10:26:42;16.90;;;11.53;;
5339;SDS011;2692;48.848;8.924;2023-03-04T10:29:11;14.67;;;11.60;;
5339;SDS011;2692;48.848;8.924;2023-03-04T10:31:38;25.00;;;12.90;;
5339;SDS011;2692;48.848;8.924;2023-03-04T10:34:05;10.53;;;8.23;;
5339;SDS011;2692;48.848;8.924;2023-03-04T10:39:39;9.77;;;8.70;;
5339;SDS011;2692;48.848;8.924;2023-03-04T10:41:45;11.97;;;9.10;;
5339;SDS011;2692;48.848;8.924;2023-03-04T10:44:17;15.37;;;8.87;;
5339;SDS011;2692;48.848;8.924;2023-03-04T10:46:43;14.10;;;9.50;;
5339;SDS011;2692;48.848;8.924;2023-03-04T10:49:09;13.30;;;8.70;;
5339;SDS011;2692;48.848;8.924;2023-03-04T10:51:40;28.13;;;11.20;;
5339;SDS011;2692;48.848;8.924;2023-03-04T10:54:07;11.40;;;9.07;;
5339;SDS011;2692;48.848;8.924;2023-03-04T10:56:40;8.57;;;7.33;;
5339;SDS011;2692;48.848;8.924;2023-03-04T11:01:55;11.63;;;8.00;;
5339;SDS011;2692;48.848;8.924;2023-03-04T11:04:23;14.70;;;9.43;;
5339;SDS011;2692;48.848;8.924;2023-03-04T11:06:50;9.10;;;6.73;;
5339;SDS011;2692;48.848;8.924;2023-03-04T11:09:22;16.13;;;10.23;;
5339;SDS011;2692;48.848;8.924;2023-03-04T11:11:49;15.47;;;8.30;;
5339;SDS011;2692;48.848;8.924;2023-03-04T11:14:21;11.17;;;8.17;;
5339;SDS011;2692;48.848;8.924;2023-03-04T11:16:55;17.50;;;11.60;;
5339;SDS011;2692;48.848;8.924;2023-03-04T11:19:21;10.07;;;7.67;;
5339;SDS011;2692;48.848;8.924;2023-03-04T11:21:47;7.77;;;6.97;;
5339;SDS011;2692;48.848;8.924;2023-03-04T11:24:13;9.70;;;7.07;;
5339;SDS011;2692;48.848;8.924;2023-03-04T11:26:42;16.00;;;9.20;;
5339;SDS011;2692;48.848;8.924;2023-03-04T11:31:39;9.77;;;7.37;;
5339;SDS011;2692;48.848;8.924;2023-03-04T11:36:58;17.03;;;9.57;;
5339;SDS011;2692;48.848;8.924;2023-03-04T11:39:35;8.77;;;6.53;;
5339;SDS011;2692;48.848;8.924;2023-03-04T11:42:02;8.80;;;6.27;;
5339;SDS011;2692;48.848;8.924;2023-03-04T11:44:29;12.90;;;8.43;;
5339;SDS011;2692;48.848;8.924;2023-03-04T11:47:03;14.03;;;7.90;;
5339;SDS011;2692;48.848;8.924;2023-03-04T11:52:19;22.50;;;7.03;;
5339;SDS011;2692;48.848;8.924;2023-03-04T11:57:08;11.40;;;7.88;;
5339;SDS011;2692;48.848;8.924;2023-03-04T12:02:12;23.10;;;9.23;;
5339;SDS011;2692;48.848;8.924;2023-03-04T12:04:39;29.77;;;7.47;;
5339;SDS011;2692;48.848;8.924;2023-03-04T12:09:34;12.50;;;8.13;;
5339;SDS011;2692;48.848;8.924;2023-03-04T12:22:33;10.27;;;8.70;;
5339;SDS011;2692;48.848;8.924;2023-03-04T12:27:42;14.13;;;10.67;;
5339;SDS011;2692;48.848;8.924;2023-03-04T12:32:51;17.20;;;10.80;;
5339;SDS011;2692;48.848;8.924;2023-03-04T12:37:52;22.63;;;16.10;;
5339;SDS011;2692;48.848;8.924;2023-03-04T12:40:27;19.70;;;12.97;;
5339;SDS011;2692;48.848;8.924;2023-03-04T12:48:30;10.13;;;8.33;;
5339;SDS011;2692;48.848;8.924;2023-03-04T12:56:21;13.53;;;9.33;;
5339;SDS011;2692;48.848;8.924;2023-03-04T12:58:47;15.87;;;9.87;;
5339;SDS011;2692;48.848;8.924;2023-03-04T13:01:17;33.40;;;19.60;;
5339;SDS011;2692;48.848;8.924;2023-03-04T13:06:15;31.60;;;14.33;;
5339;SDS011;2692;48.848;8.924;2023-03-04T13:08:52;17.43;;;12.33;;
5339;SDS011;2692;48.848;8.924;2023-03-04T13:14:33;53.90;;;28.43;;
5339;SDS011;2692;48.848;8.924;2023-03-04T13:16:43;17.67;;;13.67;;
5339;SDS011;2692;48.848;8.924;2023-03-04T13:21:52;14.00;;;7.93;;
5339;SDS011;2692;48.848;8.924;2023-03-04T13:27:41;10.50;;;6.40;;
5339;SDS011;2692;48.848;8.924;2023-03-04T13:29:47;10.23;;;7.53;;
5339;SDS011;2692;48.848;8.924;2023-03-04T13:32:12;13.83;;;7.30;;
5339;SDS011;2692;48.848;8.924;2023-03-04T13:34:57;13.80;;;7.77;;
5339;SDS011;2692;48.848;8.924;2023-03-04T13:37:30;7.57;;;5.60;;
5339;SDS011;2692;48.848;8.924;2023-03-04T13:40:40;10.20;;;6.73;;
5339;SDS011;2692;48.848;8.924;2023-03-04T13:42:42;11.43;;;5.77;;
5339;SDS011;2692;48.848;8.924;2023-03-04T13:47:51;11.53;;;6.80;;
5339;SDS011;2692;48.848;8.924;2023-03-04T13:50:23;13.13;;;7.27;;
5339;SDS011;2692;48.848;8.924;2023-03-04T13:52:51;9.30;;;5.60;;
5339;SDS011;2692;48.848;8.924;2023-03-04T13:58:01;11.93;;;8.37;;
5339;SDS011;2692;48.848;8.924;2023-03-04T14:00:26;11.27;;;7.20;;
5339;SDS011;2692;48.848;8.924;2023-03-04T14:02:51;13.27;;;7.47;;
5339;SDS011;2692;48.848;8.924;2023-03-04T14:05:16;7.20;;;6.10;;
5339;SDS011;2692;48.848;8.924;2023-03-04T14:07:42;10.00;;;6.30;;
5339;SDS011;2692;48.848;8.924;2023-03-04T14:12:36;7.07;;;6.37;;
5339;SDS011;2692;48.848;8.924;2023-03-04T14:15:14;15.30;;;7.43;;
5339;SDS011;2692;48.848;8.924;2023-03-04T14:17:45;14.10;;;9.00;;
5339;SDS011;2692;48.848;8.924;2023-03-04T14:20:23;9.20;;;6.63;;
5339;SDS011;2692;48.848;8.924;2023-03-04T14:22:48;10.33;;;6.40;;
5339;SDS011;2692;48.848;8.924;2023-03-04T14:27:39;9.77;;;7.30;;
5339;SDS011;2692;48.848;8.924;2023-03-04T14:30:05;9.10;;;6.97;;
5339;SDS011;2692;48.848;8.924;2023-03-04T14:32:31;11.33;;;8.70;;
5339;SDS011;2692;48.848;8.924;2023-03-04T14:34:57;11.60;;;7.50;;
5339;SDS011;2692;48.848;8.924;2023-03-04T14:37:28;8.73;;;5.50;;
5339;SDS011;2692;48.848;8.924;2023-03-04T14:39:56;9.53;;;6.80;;
5339;SDS011;2692;48.848;8.924;2023-03-04T14:42:22;12.13;;;7.77;;
5339;SDS011;2692;48.848;8.924;2023-03-04T14:44:49;9.63;;;7.57;;
5339;SDS011;2692;48.848;8.924;2023-03-04T14:49:41;12.07;;;8.10;;
5339;SDS011;2692;48.848;8.924;2023-03-04T14:52:24;11.10;;;7.20;;
5339;SDS011;2692;48.848;8.924;2023-03-04T14:55:00;8.70;;;6.53;;
5339;SDS011;2692;48.848;8.924;2023-03-04T14:57:27;11.03;;;7.40;;
5339;SDS011;2692;48.848;8.924;2023-03-04T14:59:53;16.60;;;9.33;;
5339;SDS011;2692;48.848;8.924;2023-03-04T15:02:26;12.13;;;7.93;;
5339;SDS011;2692;48.848;8.924;2023-03-04T15:04:56;24.10;;;7.20;;
5339;SDS011;2692;48.848;8.924;2023-03-04T15:07:26;29.73;;;21.47;;
5339;SDS011;2692;48.848;8.924;2023-03-04T15:09:53;92.83;;;42.40;;
5339;SDS011;2692;48.848;8.924;2023-03-04T15:12:26;49.03;;;33.17;;
5339;SDS011;2692;48.848;8.924;2023-03-04T15:14:53;13.13;;;9.00;;
5339;SDS011;2692;48.848;8.924;2023-03-04T15:17:36;16.07;;;10.53;;
5339;SDS011;2692;48.848;8.924;2023-03-04T15:22:30;7.77;;;6.13;;
5339;SDS011;2692;48.848;8.924;2023-03-04T15:24:56;15.00;;;8.00;;
5339;SDS011;2692;48.848;8.924;2023-03-04T15:27:21;9.57;;;5.60;;
5339;SDS011;2692;48.848;8.924;2023-03-04T15:29:53;23.10;;;9.37;;
5339;SDS011;2692;48.848;8.924;2023-03-04T15:32:38;9.83;;;5.43;;
5339;SDS011;2692;48.848;8.924;2023-03-04T15:35:03;20.40;;;6.17;;
5339;SDS011;2692;48.848;8.924;2023-03-04T15:37:28;9.87;;;6.73;;
5339;SDS011;2692;48.848;8.924;2023-03-04T15:39:54;9.33;;;5.90;;
5339;SDS011;2692;48.848;8.924;2023-03-04T15:42:20;7.60;;;5.63;;
5339;SDS011;2692;48.848;8.924;2023-03-04T15:44:45;10.63;;;6.00;;
5339;SDS011;2692;48.848;8.924;2023-03-04T15:47:10;22.17;;;7.70;;
5339;SDS011;2692;48.848;8.924;2023-03-04T15:49:38;11.73;;;6.33;;
5339;SDS011;2692;48.848;8.924;2023-03-04T15:52:04;8.53;;;5.73;;
5339;SDS011;2692;48.848;8.924;2023-03-04T15:54:30;10.63;;;7.27;;
5339;SDS011;2692;48.848;8.924;2023-03-04T15:56:55;8.30;;;5.43;;
5339;SDS011;2692;48.848;8.924;2023-03-04T15:59:22;8.13;;;5.90;;
5339;SDS011;2692;48.848;8.924;2023-03-04T16:01:47;7.20;;;5.57;;
5339;SDS011;2692;48.848;8.924;2023-03-04T16:04:13;12.87;;;5.40;;
5339;SDS011;2692;48.848;8.924;2023-03-04T16:06:45;12.93;;;8.93;;
5339;SDS011;2692;48.848;8.924;2023-03-04T16:09:11;10.53;;;7.47;;
5339;SDS011;2692;48.848;8.924;2023-03-04T16:11:38;15.93;;;8.20;;
5339;SDS011;2692;48.848;8.924;2023-03-04T16:14:07;12.00;;;9.10;;
5339;SDS011;2692;48.848;8.924;2023-03-04T16:16:32;7.93;;;5.60;;
5339;SDS011;2692;48.848;8.924;2023-03-04T16:18:58;10.60;;;8.00;;
5339;SDS011;2692;48.848;8.924;2023-03-04T16:21:23;20.02;;;12.73;;
5339;SDS011;2692;48.848;8.924;2023-03-04T16:23:48;11.27;;;9.13;;
5339;SDS011;2692;48.848;8.924;2023-03-04T16:26:16;10.93;;;6.77;;
5339;SDS011;2692;48.848;8.924;2023-03-04T16:28:41;11.00;;;6.87;;
5339;SDS011;2692;48.848;8.924;2023-03-04T16:31:08;7.37;;;5.70;;
5339;SDS011;2692;48.848;8.924;2023-03-04T16:33:33;9.93;;;7.70;;